Time;durP1;ratioP1;P1;durP2;ratioP2;P2;SDS_P1;SDS_P2;PMS_P1;PMS_P2;Temp;Humidity;BMP_temperature;BMP_pressure;BME280_temperature;BME280_humidity;BME280_pressure;Samples;Min_cycle;Max_cycle;Signal;HPM_P1;HPM_P2
2022/06/12 00:03:36;;;;;;;5.57;4.13;;;;;;;;;;10366719;28;20197;-65
2022/06/12 00:08:41;;;;;;;7.32;4.32;;;;;;;;;;10366284;28;20333;-66
2022/06/12 00:13:47;;;;;;;7.70;5.03;;;;;;;;;;10354002;28;20093;-65
2022/06/12 00:18:49;;;;;;;5.22;4.43;;;;;;;;;;10351911;28;20050;-67
2022/06/12 00:23:57;;;;;;;7.55;4.47;;;;;;;;;;10354367;28;20065;-65
2022/06/12 00:29:04;;;;;;;5.70;4.55;;;;;;;;;;10366135;28;20038;-65
2022/06/12 00:34:07;;;;;;;7.68;4.80;;;;;;;;;;10366092;28;20054;-65
2022/06/12 00:39:12;;;;;;;8.57;4.65;;;;;;;;;;10352740;28;20054;-65
2022/06/12 00:44:16;;;;;;;7.60;4.72;;;;;;;;;;10352703;28;20057;-66
2022/06/12 00:49:24;;;;;;;5.55;4.72;;;;;;;;;;10366455;28;20242;-65
2022/06/12 00:54:29;;;;;;;12.00;5.25;;;;;;;;;;10352599;28;20065;-65
2022/06/12 00:59:38;;;;;;;6.43;4.80;;;;;;;;;;10351992;28;20054;-65
2022/06/12 01:10:07;;;;;;;5.25;4.18;;;;;;;;;;10353557;28;20345;-67
2022/06/12 01:15:28;;;;;;;7.38;5.03;;;;;;;;;;10352842;28;20051;-67
2022/06/12 01:20:40;;;;;;;7.95;5.07;;;;;;;;;;10353019;28;20078;-66
2022/06/12 01:26:13;;;;;;;5.10;4.60;;;;;;;;;;10365487;28;20222;-66
2022/06/12 01:31:37;;;;;;;5.60;4.85;;;;;;;;;;10359862;28;20054;-66
2022/06/12 01:36:48;;;;;;;9.90;5.07;;;;;;;;;;10341203;28;20061;-67
2022/06/12 01:41:57;;;;;;;8.70;5.50;;;;;;;;;;10373166;28;20055;-67
2022/06/12 01:47:12;;;;;;;10.27;5.53;;;;;;;;;;10372450;28;20050;-66
2022/06/12 01:52:22;;;;;;;11.75;5.15;;;;;;;;;;10333171;28;20070;-67
2022/06/12 01:57:32;;;;;;;5.18;4.68;;;;;;;;;;10332682;28;20326;-67
2022/06/12 02:02:44;;;;;;;13.73;6.18;;;;;;;;;;10367033;28;20049;-66
2022/06/12 02:07:54;;;;;;;12.18;6.43;;;;;;;;;;10372821;28;20042;-67
2022/06/12 02:13:13;;;;;;;8.73;5.35;;;;;;;;;;10358263;28;20050;-67
2022/06/12 02:18:25;;;;;;;8.30;5.25;;;;;;;;;;10358210;28;20069;-66
2022/06/12 02:23:34;;;;;;;14.75;6.45;;;;;;;;;;10357574;28;20292;-67
2022/06/12 02:28:41;;;;;;;9.52;5.88;;;;;;;;;;10371339;28;20344;-67
2022/06/12 02:33:49;;;;;;;8.48;5.63;;;;;;;;;;10370745;28;20046;-66
2022/06/12 02:38:58;;;;;;;7.38;5.72;;;;;;;;;;10370687;28;20318;-66
2022/06/12 02:44:07;;;;;;;12.02;7.10;;;;;;;;;;10357272;28;20069;-67
2022/06/12 02:49:11;;;;;;;9.50;6.00;;;;;;;;;;10356857;28;20058;-66
2022/06/12 02:54:31;;;;;;;9.32;5.68;;;;;;;;;;10370890;28;20046;-68
2022/06/12 02:59:47;;;;;;;9.63;5.85;;;;;;;;;;10369890;28;20249;-68
2022/06/12 03:04:57;;;;;;;6.75;5.45;;;;;;;;;;10356692;28;20058;-68
2022/06/12 03:10:05;;;;;;;8.43;5.90;;;;;;;;;;10369460;28;20352;-67
2022/06/12 03:15:27;;;;;;;9.80;5.95;;;;;;;;;;10369743;28;20046;-66
2022/06/12 03:20:52;;;;;;;9.07;5.60;;;;;;;;;;10355996;28;20081;-66
2022/06/12 03:25:56;;;;;;;9.10;5.97;;;;;;;;;;10368846;28;20054;-67
2022/06/12 03:31:08;;;;;;;11.95;6.32;;;;;;;;;;10368612;28;20038;-68
2022/06/12 03:36:18;;;;;;;8.50;5.80;;;;;;;;;;10354903;28;20061;-68
2022/06/12 03:41:26;;;;;;;8.20;5.70;;;;;;;;;;10366809;28;20046;-67
2022/06/12 03:46:36;;;;;;;11.00;5.90;;;;;;;;;;10351271;28;20050;-67
2022/06/12 03:51:46;;;;;;;7.47;5.30;;;;;;;;;;10354466;28;20061;-67
2022/06/12 04:02:18;;;;;;;9.38;5.40;;;;;;;;;;10365665;28;20046;-67
2022/06/12 04:07:24;;;;;;;8.60;5.20;;;;;;;;;;10353900;28;20058;-68
2022/06/12 04:12:30;;;;;;;8.55;5.20;;;;;;;;;;10367211;28;20046;-68
2022/06/12 04:17:33;;;;;;;8.63;5.45;;;;;;;;;;10352321;28;20054;-67
2022/06/12 04:22:47;;;;;;;7.72;4.70;;;;;;;;;;10352822;28;20077;-67
2022/06/12 04:27:49;;;;;;;8.60;4.50;;;;;;;;;;10365704;28;20038;-67
2022/06/12 04:33:09;;;;;;;7.82;4.05;;;;;;;;;;10352591;28;20290;-67
2022/06/12 04:38:13;;;;;;;4.30;3.45;;;;;;;;;;10358630;28;20051;-67
2022/06/12 04:43:16;;;;;;;4.20;3.80;;;;;;;;;;10312358;28;20070;-67
2022/06/12 04:48:32;;;;;;;6.07;3.92;;;;;;;;;;10347312;28;20042;-70
2022/06/12 04:53:37;;;;;;;7.03;4.78;;;;;;;;;;10365615;28;20249;-68
2022/06/12 04:58:40;;;;;;;12.80;5.38;;;;;;;;;;10350278;28;20042;-68
2022/06/12 05:03:43;;;;;;;8.30;4.70;;;;;;;;;;10367843;28;20249;-67
2022/06/12 05:08:48;;;;;;;5.38;3.75;;;;;;;;;;10358979;28;20062;-67
2022/06/12 05:13:51;;;;;;;6.43;4.07;;;;;;;;;;10354161;28;20061;-66
2022/06/12 05:18:53;;;;;;;6.70;4.72;;;;;;;;;;10360733;28;20061;-66
2022/06/12 05:23:58;;;;;;;7.40;4.20;;;;;;;;;;10357834;28;20239;-68
2022/06/12 05:29:01;;;;;;;5.22;4.15;;;;;;;;;;10373241;28;20249;-67
2022/06/12 05:34:04;;;;;;;4.68;4.03;;;;;;;;;;10357165;28;20281;-67
2022/06/12 05:39:08;;;;;;;6.38;4.10;;;;;;;;;;10367279;28;20061;-67
2022/06/12 05:44:11;;;;;;;4.80;3.53;;;;;;;;;;10366802;28;20039;-65
2022/06/12 05:49:14;;;;;;;5.45;2.90;;;;;;;;;;10356698;28;20061;-66
2022/06/12 05:54:18;;;;;;;4.97;2.60;;;;;;;;;;10368984;28;20046;-67
2022/06/12 05:59:21;;;;;;;2.47;1.88;;;;;;;;;;10365754;28;20045;-68
2022/06/12 06:04:23;;;;;;;0.00;0.00;;;;;;;;;;10346261;28;20046;-67
2022/06/12 06:09:29;;;;;;;0.10;0.10;;;;;;;;;;10371214;28;20050;-67
2022/06/12 06:14:32;;;;;;;0.20;0.20;;;;;;;;;;10366760;28;20061;-67
2022/06/12 06:19:34;;;;;;;0.60;0.60;;;;;;;;;;10369432;28;20065;-67
2022/06/12 06:24:38;;;;;;;1.00;1.00;;;;;;;;;;10352746;28;20293;-70
2022/06/12 06:29:43;;;;;;;1.70;1.70;;;;;;;;;;10348710;28;20097;-68
2022/06/12 06:34:46;;;;;;;0.40;0.40;;;;;;;;;;10348552;28;20042;-66
2022/06/12 06:39:50;;;;;;;0.00;0.00;;;;;;;;;;10354214;28;20058;-69
2022/06/12 06:50:14;;;;;;;0.15;0.15;;;;;;;;;;10367680;28;20086;-66
2022/06/12 06:55:19;;;;;;;0.63;0.63;;;;;;;;;;10367403;28;20349;-66
2022/06/12 07:00:23;;;;;;;1.60;1.60;;;;;;;;;;10366151;28;20053;-68
2022/06/12 07:05:26;;;;;;;3.40;3.30;;;;;;;;;;10367584;28;20251;-68
2022/06/12 07:10:32;;;;;;;6.28;6.07;;;;;;;;;;10352423;28;20149;-68
2022/06/12 07:15:37;;;;;;;10.52;10.13;;;;;;;;;;10352255;28;20063;-68
2022/06/12 07:20:45;;;;;;;13.93;13.32;;;;;;;;;;10362357;28;20062;-68
2022/06/12 07:25:52;;;;;;;16.50;15.70;;;;;;;;;;10365838;28;20093;-67
2022/06/12 07:30:54;;;;;;;19.85;18.85;;;;;;;;;;10365760;28;20046;-67
2022/06/12 07:35:57;;;;;;;22.15;21.05;;;;;;;;;;10351757;28;20050;-70
2022/06/12 07:41:03;;;;;;;25.45;24.15;;;;;;;;;;10353573;28;20065;-76
2022/06/12 07:46:09;;;;;;;33.33;31.52;;;;;;;;;;10363584;28;20050;-68
2022/06/12 07:51:14;;;;;;;39.37;37.17;;;;;;;;;;10352622;28;20054;-68
2022/06/12 07:56:20;;;;;;;44.53;41.93;;;;;;;;;;10346881;28;20255;-68
2022/06/12 08:01:25;;;;;;;50.47;47.47;;;;;;;;;;10363269;28;20054;-71
2022/06/12 08:06:28;;;;;;;;;;;;;;;;;;10360274;28;20050;-68
2022/06/12 08:11:34;;;;;;;64.03;60.03;;;;;;;;;;10351344;28;19926;-69
2022/06/12 08:16:37;;;;;;;66.68;62.42;;;;;;;;;;10351526;28;20054;-68
2022/06/12 08:21:39;;;;;;;72.90;68.18;;;;;;;;;;10358167;28;20050;-70
2022/06/12 08:26:43;;;;;;;80.03;74.72;;;;;;;;;;10371988;28;20057;-71
2022/06/12 08:31:49;;;;;;;87.05;81.05;;;;;;;;;;10356669;28;20050;-69
2022/06/12 08:36:52;;;;;;;95.30;88.60;;;;;;;;;;10358352;28;20337;-70
2022/06/12 08:42:02;;;;;;;62.70;58.70;;;;;;;;;;10370129;28;20493;-70
2022/06/12 08:47:10;;;;;;;92.95;86.35;;;;;;;;;;10366983;28;20049;-69
2022/06/12 08:52:22;;;;;;;89.90;83.20;;;;;;;;;;10368718;28;20045;-70
2022/06/12 08:57:37;;;;;;;77.75;72.20;;;;;;;;;;10368593;28;20423;-68
2022/06/12 09:02:43;;;;;;;44.90;41.80;;;;;;;;;;10369667;28;20416;-69
2022/06/12 09:07:50;;;;;;;94.30;87.20;;;;;;;;;;10359512;28;20345;-69
2022/06/12 09:12:57;;;;;;;78.00;72.53;;;;;;;;;;10355855;28;20612;-69
2022/06/12 09:18:07;;;;;;;51.77;48.67;;;;;;;;;;10369216;28;20655;-69
2022/06/12 09:23:22;;;;;;;57.33;53.83;;;;;;;;;;10354409;28;20066;-69
2022/06/12 09:28:31;;;;;;;;;;;;;;;;;;10371251;28;20050;-70
2022/06/12 09:33:43;;;;;;;43.15;40.65;;;;;;;;;;10367808;28;19925;-68
2022/06/12 09:38:58;;;;;;;31.20;29.50;;;;;;;;;;10369971;28;20042;-71
2022/06/12 09:44:18;;;;;;;20.58;19.58;;;;;;;;;;10360944;28;20080;-72
2022/06/12 09:49:33;;;;;;;4.45;4.35;;;;;;;;;;10373685;28;20329;-70
2022/06/12 09:54:46;;;;;;;0.10;0.10;;;;;;;;;;10369984;28;20053;-70
2022/06/12 09:59:56;;;;;;;0.00;0.00;;;;;;;;;;10371231;28;20053;-70
2022/06/12 10:05:04;;;;;;;0.00;0.00;;;;;;;;;;10364558;28;20207;-69
2022/06/12 10:10:12;;;;;;;0.00;0.00;;;;;;;;;;10368485;28;20348;-69
2022/06/12 10:15:24;;;;;;;0.00;0.00;;;;;;;;;;10366250;28;20075;-70
2022/06/12 10:20:32;;;;;;;0.00;0.00;;;;;;;;;;10352340;28;20061;-70
2022/06/12 10:25:37;;;;;;;0.00;0.00;;;;;;;;;;10371094;28;20053;-69
2022/06/12 10:30:43;;;;;;;0.00;0.00;;;;;;;;;;10352178;28;20109;-69
2022/06/12 10:35:49;;;;;;;0.00;0.00;;;;;;;;;;10367811;28;20053;-70
2022/06/12 10:40:55;;;;;;;0.00;0.00;;;;;;;;;;10354031;28;20053;-71
2022/06/12 10:46:06;;;;;;;0.00;0.00;;;;;;;;;;10352215;28;20054;-70
2022/06/12 10:51:29;;;;;;;0.00;0.00;;;;;;;;;;10366655;28;20045;-70
2022/06/12 10:56:39;;;;;;;0.20;0.08;;;;;;;;;;10366960;28;20053;-70
2022/06/12 11:01:52;;;;;;;0.10;0.10;;;;;;;;;;10358791;28;20333;-70
2022/06/12 11:07:08;;;;;;;0.30;0.30;;;;;;;;;;10361441;28;20042;-70
2022/06/12 11:12:30;;;;;;;0.63;0.45;;;;;;;;;;10352639;28;20073;-70
2022/06/12 11:17:44;;;;;;;0.47;0.47;;;;;;;;;;10364613;28;20042;-70
2022/06/12 11:22:57;;;;;;;0.95;0.65;;;;;;;;;;10352001;28;20353;-71
2022/06/12 11:28:17;;;;;;;1.30;0.95;;;;;;;;;;10362830;28;20047;-72
2022/06/12 11:33:59;;;;;;;1.42;1.30;;;;;;;;;;10363325;28;20068;-71
2022/06/12 11:39:18;;;;;;;3.55;1.48;;;;;;;;;;10334333;28;20054;-72
2022/06/12 11:44:34;;;;;;;1.63;1.38;;;;;;;;;;10364752;28;20053;-72
2022/06/12 11:49:47;;;;;;;1.98;1.40;;;;;;;;;;10364469;28;20057;-70
2022/06/12 11:55:01;;;;;;;1.48;1.27;;;;;;;;;;10362769;28;20054;-71
2022/06/12 12:00:11;;;;;;;1.60;1.30;;;;;;;;;;10359472;28;20050;-71
2022/06/12 12:05:28;;;;;;;2.08;1.27;;;;;;;;;;10361302;28;21825;-73
2022/06/12 12:10:46;;;;;;;3.88;1.50;;;;;;;;;;10362822;28;20110;-73
2022/06/12 12:15:51;;;;;;;2.83;1.73;;;;;;;;;;10364263;28;20054;-73
2022/06/12 12:20:56;;;;;;;1.80;1.25;;;;;;;;;;10358479;28;20054;-71
2022/06/12 12:26:03;;;;;;;1.52;1.40;;;;;;;;;;10350583;28;20054;-73
2022/06/12 12:31:10;;;;;;;3.38;1.80;;;;;;;;;;10362551;28;20038;-68
2022/06/12 12:41:43;;;;;;;4.57;1.88;;;;;;;;;;10362225;28;20256;-70
2022/06/12 12:46:48;;;;;;;2.05;1.38;;;;;;;;;;10362169;28;20042;-72
2022/06/12 12:52:03;;;;;;;3.13;1.60;;;;;;;;;;10361486;28;20038;-71
2022/06/12 12:57:05;;;;;;;4.90;2.10;;;;;;;;;;10359497;28;20126;-74
2022/06/12 13:02:22;;;;;;;2.03;1.40;;;;;;;;;;10363066;28;20050;-72
2022/06/12 13:07:48;;;;;;;2.42;1.45;;;;;;;;;;10361499;28;20202;-72
2022/06/12 13:13:08;;;;;;;4.25;1.88;;;;;;;;;;10361091;28;20037;-72
2022/06/12 13:18:23;;;;;;;1.95;1.75;;;;;;;;;;10354288;28;20042;-72
2022/06/12 13:23:47;;;;;;;4.47;1.50;;;;;;;;;;10351372;28;20042;-69
2022/06/12 13:28:56;;;;;;;1.90;1.30;;;;;;;;;;10356790;28;20396;-70
2022/06/12 13:33:59;;;;;;;4.30;1.40;;;;;;;;;;10355425;28;20057;-68
2022/06/12 13:39:06;;;;;;;1.52;1.35;;;;;;;;;;10357056;28;20054;-68
2022/06/12 13:44:24;;;;;;;1.67;1.33;;;;;;;;;;10368829;28;20064;-69
2022/06/12 13:49:37;;;;;;;1.88;1.50;;;;;;;;;;10369076;28;20321;-69
2022/06/12 13:54:45;;;;;;;2.63;1.60;;;;;;;;;;10368075;28;20054;-69
2022/06/12 13:59:48;;;;;;;11.10;1.83;;;;;;;;;;10367381;28;20049;-70
2022/06/12 14:04:55;;;;;;;3.17;1.85;;;;;;;;;;10355365;28;20050;-70
2022/06/12 14:10:01;;;;;;;7.25;2.50;;;;;;;;;;10367746;28;20356;-69
2022/06/12 14:15:27;;;;;;;9.52;3.97;;;;;;;;;;10367657;28;20046;-73
2022/06/12 14:20:32;;;;;;;6.40;2.58;;;;;;;;;;10362552;28;20082;-71
2022/06/12 14:25:38;;;;;;;3.53;2.97;;;;;;;;;;10366756;28;20326;-72
2022/06/12 14:30:44;;;;;;;4.25;3.05;;;;;;;;;;10368138;28;20042;-71
2022/06/12 14:35:46;;;;;;;5.60;2.92;;;;;;;;;;10366175;28;20056;-71
2022/06/12 14:40:50;;;;;;;5.57;2.77;;;;;;;;;;10366560;28;20229;-71
2022/06/12 14:45:55;;;;;;;3.22;2.47;;;;;;;;;;10364314;28;20050;-72
2022/06/12 14:50:58;;;;;;;4.00;2.35;;;;;;;;;;10366395;28;20038;-73
2022/06/12 14:56:07;;;;;;;3.70;1.88;;;;;;;;;;10358512;28;20053;-73
2022/06/12 15:01:12;;;;;;;4.80;2.53;;;;;;;;;;10352155;28;20042;-71
2022/06/12 15:06:15;;;;;;;1.85;1.63;;;;;;;;;;10359056;28;20137;-69
2022/06/12 15:11:22;;;;;;;3.10;1.85;;;;;;;;;;10363527;28;20042;-69
2022/06/12 15:16:28;;;;;;;2.65;2.00;;;;;;;;;;10352369;28;20325;-71
2022/06/12 15:21:34;;;;;;;2.22;1.77;;;;;;;;;;10358638;28;20417;-71
2022/06/12 15:32:00;;;;;;;3.65;1.52;;;;;;;;;;10362338;28;20046;-69
2022/06/12 15:37:02;;;;;;;3.10;1.85;;;;;;;;;;10364607;28;20049;-71
2022/06/12 15:42:08;;;;;;;1.48;1.38;;;;;;;;;;10363439;28;20045;-70
2022/06/12 15:47:11;;;;;;;2.15;1.80;;;;;;;;;;10361708;28;20244;-71
2022/06/12 15:52:14;;;;;;;2.08;1.75;;;;;;;;;;10363596;28;20045;-70
2022/06/12 15:57:20;;;;;;;2.10;1.77;;;;;;;;;;10363382;28;20060;-69
2022/06/12 16:02:24;;;;;;;3.75;1.73;;;;;;;;;;10365015;28;20034;-70
2022/06/12 16:07:27;;;;;;;6.60;1.90;;;;;;;;;;10363166;28;20245;-71
2022/06/12 16:12:31;;;;;;;1.70;1.50;;;;;;;;;;10357758;28;20042;-72
2022/06/12 16:17:33;;;;;;;2.97;2.08;;;;;;;;;;10349994;28;20322;-70
2022/06/12 16:22:36;;;;;;;3.10;1.97;;;;;;;;;;10352626;28;20242;-69
2022/06/12 16:27:41;;;;;;;4.07;2.23;;;;;;;;;;10359063;28;20280;-69
2022/06/12 16:32:44;;;;;;;2.20;1.60;;;;;;;;;;10358125;28;20042;-69
2022/06/12 16:37:48;;;;;;;1.88;1.77;;;;;;;;;;10360346;28;20241;-70
2022/06/12 16:42:52;;;;;;;2.75;2.08;;;;;;;;;;10363279;28;20039;-69
2022/06/12 16:47:55;;;;;;;4.40;2.33;;;;;;;;;;10362102;28;20042;-72
2022/06/12 16:53:01;;;;;;;3.08;2.30;;;;;;;;;;10349009;28;20245;-69
2022/06/12 16:58:05;;;;;;;7.93;2.95;;;;;;;;;;10349101;28;20038;-71
2022/06/12 17:03:08;;;;;;;4.32;2.40;;;;;;;;;;10355903;28;20160;-73
2022/06/12 17:08:11;;;;;;;3.00;2.57;;;;;;;;;;10364973;28;20042;-70
2022/06/12 17:13:15;;;;;;;2.87;2.57;;;;;;;;;;10368180;28;20053;-70
2022/06/12 17:23:38;;;;;;;5.63;3.15;;;;;;;;;;10356119;28;20069;-71
2022/06/12 17:28:42;;;;;;;4.37;3.00;;;;;;;;;;10369303;28;20057;-69
2022/06/12 17:33:45;;;;;;;6.88;3.15;;;;;;;;;;10369563;28;20307;-71
2022/06/12 17:38:48;;;;;;;4.68;2.97;;;;;;;;;;10370477;28;20054;-70
2022/06/12 17:43:52;;;;;;;3.73;2.50;;;;;;;;;;10368597;28;20134;-71
2022/06/12 17:48:54;;;;;;;3.58;2.70;;;;;;;;;;10369253;28;20329;-73
2022/06/12 17:53:57;;;;;;;2.78;2.58;;;;;;;;;;10368886;28;20058;-69
2022/06/12 17:59:01;;;;;;;7.00;3.53;;;;;;;;;;10364425;28;20058;-70
2022/06/12 18:04:05;;;;;;;11.82;3.63;;;;;;;;;;10355902;28;20177;-72
2022/06/12 18:09:09;;;;;;;6.55;4.15;;;;;;;;;;10367871;28;20053;-69
2022/06/12 18:14:13;;;;;;;5.25;3.42;;;;;;;;;;10361751;28;20239;-71
2022/06/12 18:19:19;;;;;;;6.47;3.92;;;;;;;;;;10361291;28;20050;-69
2022/06/12 18:24:24;;;;;;;6.80;4.18;;;;;;;;;;10348805;28;20122;-70
2022/06/12 18:29:29;;;;;;;5.68;4.15;;;;;;;;;;10366786;28;20089;-72
2022/06/12 18:34:31;;;;;;;4.70;3.50;;;;;;;;;;10364060;28;20042;-72
2022/06/12 18:39:34;;;;;;;6.00;3.63;;;;;;;;;;10362709;28;20047;-70
2022/06/12 18:44:38;;;;;;;5.03;3.80;;;;;;;;;;10365007;28;20042;-72
2022/06/12 18:49:40;;;;;;;4.25;3.53;;;;;;;;;;10363728;28;20455;-70
2022/06/12 18:54:43;;;;;;;5.43;3.83;;;;;;;;;;10365477;28;20249;-70
2022/06/12 18:59:49;;;;;;;4.07;3.42;;;;;;;;;;10365697;28;20053;-70
2022/06/12 19:04:51;;;;;;;4.00;3.13;;;;;;;;;;10363608;28;20046;-69
2022/06/12 19:09:54;;;;;;;5.10;3.50;;;;;;;;;;10347079;28;20057;-70
2022/06/12 19:14:58;;;;;;;5.65;3.65;;;;;;;;;;10363776;28;20110;-71
2022/06/12 19:20:01;;;;;;;3.83;3.50;;;;;;;;;;10319569;28;1245907;-70
2022/06/12 19:25:05;;;;;;;4.47;3.85;;;;;;;;;;10365014;28;20085;-69
2022/06/12 19:30:11;;;;;;;7.40;6.20;;;;;;;;;;10365727;28;20046;-69
2022/06/12 19:35:13;;;;;;;5.03;3.75;;;;;;;;;;10363686;28;20042;-68
2022/06/12 19:40:22;;;;;;;4.70;4.18;;;;;;;;;;10348173;28;20043;-69
2022/06/12 19:45:27;;;;;;;5.03;4.38;;;;;;;;;;10362210;28;20054;-69
2022/06/12 19:50:30;;;;;;;4.72;3.97;;;;;;;;;;10364942;28;20233;-68
2022/06/12 19:55:32;;;;;;;5.43;4.05;;;;;;;;;;10365817;28;20046;-69
2022/06/12 20:00:36;;;;;;;4.00;3.60;;;;;;;;;;10364538;28;20042;-70
2022/06/12 20:11:00;;;;;;;5.28;4.45;;;;;;;;;;10342252;28;20047;-69
2022/06/12 20:16:04;;;;;;;9.45;4.30;;;;;;;;;;10350515;28;20050;-69
2022/06/12 20:21:09;;;;;;;8.68;5.30;;;;;;;;;;10348912;28;20054;-69
2022/06/12 20:26:11;;;;;;;;;;;;;;;;;;10364070;28;20038;-69
2022/06/12 20:31:15;;;;;;;4.70;4.20;;;;;;;;;;10352881;28;19930;-70
2022/06/12 20:36:17;;;;;;;6.63;4.88;;;;;;;;;;10365799;28;20046;-69
2022/06/12 20:41:20;;;;;;;7.30;4.80;;;;;;;;;;10351603;28;20031;-70
2022/06/12 20:46:24;;;;;;;5.20;4.63;;;;;;;;;;10363641;28;20038;-71
2022/06/12 20:51:26;;;;;;;10.57;4.20;;;;;;;;;;10350656;28;20046;-70
2022/06/12 20:56:29;;;;;;;4.70;3.95;;;;;;;;;;10364042;28;20245;-70
2022/06/12 21:01:33;;;;;;;8.30;4.60;;;;;;;;;;10362667;28;20222;-70
2022/06/12 21:06:38;;;;;;;5.60;3.95;;;;;;;;;;10364351;28;20093;-69
2022/06/12 21:11:42;;;;;;;;;;;;;;;;;;10359581;28;20081;-70
2022/06/12 21:16:48;;;;;;;9.13;4.70;;;;;;;;;;10363305;28;19949;-70
2022/06/12 21:21:51;;;;;;;5.57;4.50;;;;;;;;;;10354166;28;20354;-70
2022/06/12 21:26:53;;;;;;;6.45;4.18;;;;;;;;;;10363566;28;20050;-70
2022/06/12 21:31:57;;;;;;;9.20;5.28;;;;;;;;;;10359185;28;20038;-69
2022/06/12 21:36:59;;;;;;;5.60;4.72;;;;;;;;;;10351554;28;20056;-71
2022/06/12 21:42:02;;;;;;;7.25;5.30;;;;;;;;;;10366324;28;20277;-70
2022/06/12 21:47:06;;;;;;;6.57;4.72;;;;;;;;;;10369435;28;20058;-69
2022/06/12 21:57:29;;;;;;;9.18;5.35;;;;;;;;;;10371710;28;20089;-69
2022/06/12 22:02:34;;;;;;;7.35;4.95;;;;;;;;;;10372074;28;20053;-69
2022/06/12 22:07:37;;;;;;;8.57;5.07;;;;;;;;;;10371225;28;20046;-70
2022/06/12 22:12:41;;;;;;;10.32;6.18;;;;;;;;;;10371327;28;20050;-69
2022/06/12 22:17:45;;;;;;;6.68;5.70;;;;;;;;;;10371444;28;20054;-69
2022/06/12 22:22:49;;;;;;;7.47;5.60;;;;;;;;;;10360801;28;20061;-70
2022/06/12 22:27:51;;;;;;;13.65;5.97;;;;;;;;;;10371126;28;20045;-70
2022/06/12 22:32:55;;;;;;;13.48;6.38;;;;;;;;;;10372200;28;20057;-70
2022/06/12 22:38:00;;;;;;;12.85;6.25;;;;;;;;;;10371797;28;20053;-70
2022/06/12 22:43:03;;;;;;;12.10;6.50;;;;;;;;;;10336004;28;20066;-70
2022/06/12 22:48:07;;;;;;;11.73;6.40;;;;;;;;;;10329466;28;20042;-70
2022/06/12 22:53:11;;;;;;;8.20;6.20;;;;;;;;;;10369259;28;20229;-69
2022/06/12 22:58:13;;;;;;;8.73;5.80;;;;;;;;;;10369093;28;20046;-70
2022/06/12 23:03:18;;;;;;;10.38;6.15;;;;;;;;;;10369804;28;20049;-69
2022/06/12 23:08:21;;;;;;;8.30;5.53;;;;;;;;;;10368813;28;20042;-69
2022/06/12 23:13:23;;;;;;;9.65;6.20;;;;;;;;;;10368123;28;20337;-70
2022/06/12 23:18:27;;;;;;;6.57;5.15;;;;;;;;;;10369123;28;20054;-70
2022/06/12 23:23:31;;;;;;;10.05;5.70;;;;;;;;;;10357311;28;20070;-69
2022/06/12 23:28:37;;;;;;;9.82;6.45;;;;;;;;;;10368710;28;20054;-70
2022/06/12 23:33:40;;;;;;;9.50;6.40;;;;;;;;;;10341150;28;20050;-70
2022/06/12 23:38:43;;;;;;;9.98;6.30;;;;;;;;;;10327945;28;20046;-69
2022/06/12 23:43:46;;;;;;;10.35;6.05;;;;;;;;;;10363803;28;20051;-69
2022/06/12 23:48:52;;;;;;;8.77;5.88;;;;;;;;;;10367239;28;20042;-69
2022/06/12 23:53:55;;;;;;;9.13;6.18;;;;;;;;;;10367966;28;20045;-69
2022/06/12 23:58:58;;;;;;;12.70;6.50;;;;;;;;;;10366864;28;20046;-70
